Time;durP1;ratioP1;P1;durP2;ratioP2;P2;SDS_P1;SDS_P2;PMS_P1;PMS_P2;Temp;Humidity;BMP_temperature;BMP_pressure;BME280_temperature;BME280_humidity;BME280_pressure;Samples;Min_cycle;Max_cycle;Signal;HPM_P1;HPM_P2
2023/04/28 00:01:25;;;;;;;6.23;5.80;;;12.00;99.90;;;;;;5031832;28;20649;-63
2023/04/28 00:03:52;;;;;;;7.57;6.77;;;12.00;99.90;;;;;;5032493;28;20264;-63
2023/04/28 00:06:17;;;;;;;6.80;6.40;;;12.00;99.90;;;;;;5032569;28;20198;-63
2023/04/28 00:08:43;;;;;;;8.10;6.43;;;12.00;99.90;;;;;;5031905;28;20209;-64
2023/04/28 00:11:12;;;;;;;6.97;6.33;;;12.00;99.90;;;;;;5032083;28;20190;-63
2023/04/28 00:13:38;;;;;;;6.83;5.87;;;12.00;99.90;;;;;;5032335;28;20172;-63
2023/04/28 00:16:04;;;;;;;7.10;5.90;;;12.00;99.90;;;;;;5031813;28;20238;-63
2023/04/28 00:18:29;;;;;;;6.27;5.73;;;12.10;99.90;;;;;;5031872;28;20681;-63
2023/04/28 00:20:55;;;;;;;7.03;6.33;;;12.10;99.90;;;;;;5031575;28;20270;-63
2023/04/28 00:23:21;;;;;;;8.80;6.60;;;12.20;99.90;;;;;;5030677;28;20210;-64
2023/04/28 00:25:51;;;;;;;13.17;6.40;;;12.20;99.90;;;;;;5031995;28;20179;-63
2023/04/28 00:28:17;;;;;;;6.50;5.90;;;12.20;99.90;;;;;;5031310;28;20221;-64
2023/04/28 00:30:42;;;;;;;7.13;6.53;;;12.20;99.90;;;;;;5031120;28;20254;-62
2023/04/28 00:33:08;;;;;;;6.60;6.10;;;12.20;99.90;;;;;;5031554;28;20179;-63
2023/04/28 00:35:34;;;;;;;6.10;5.60;;;12.10;99.90;;;;;;5031687;28;20576;-64
2023/04/28 00:37:59;;;;;;;8.17;6.20;;;12.10;99.90;;;;;;5031641;28;20211;-63
2023/04/28 00:40:32;;;;;;;6.53;5.90;;;12.10;99.90;;;;;;5031516;28;20218;-63
2023/04/28 00:42:58;;;;;;;6.97;6.40;;;12.10;99.90;;;;;;5031564;28;20180;-63
2023/04/28 00:45:23;;;;;;;6.93;6.43;;;12.00;99.90;;;;;;5032146;28;20182;-63
2023/04/28 00:47:49;;;;;;;5.97;5.37;;;11.90;99.90;;;;;;5031809;28;20252;-63
2023/04/28 00:50:15;;;;;;;7.10;6.40;;;11.90;99.90;;;;;;5031678;28;20624;-63
2023/04/28 00:52:42;;;;;;;6.63;6.23;;;11.90;99.90;;;;;;5031098;28;20599;-63
2023/04/28 00:55:08;;;;;;;6.07;5.67;;;11.90;99.90;;;;;;5031663;28;20266;-63
2023/04/28 00:57:35;;;;;;;7.13;6.03;;;11.90;99.90;;;;;;5030798;28;20183;-63
2023/04/28 01:00:02;;;;;;;7.07;6.57;;;11.90;1.00;;;;;;5030981;28;20171;-63
2023/04/28 01:02:28;;;;;;;6.60;5.73;;;11.80;1.00;;;;;;5031502;28;20180;-63
2023/04/28 01:04:56;;;;;;;8.57;7.87;;;11.80;1.00;;;;;;5031178;28;20206;-64
2023/04/28 01:07:21;;;;;;;9.00;6.40;;;11.80;1.00;;;;;;5031416;28;20644;-64
2023/04/28 01:09:47;;;;;;;7.30;6.83;;;11.80;1.00;;;;;;5030529;28;20203;-65
2023/04/28 01:12:13;;;;;;;7.23;6.73;;;11.70;1.00;;;;;;5031300;28;20254;-65
2023/04/28 01:14:39;;;;;;;7.57;6.83;;;11.60;1.00;;;;;;5031153;28;20188;-64
2023/04/28 01:17:05;;;;;;;10.77;7.47;;;11.50;99.90;;;;;;5031449;28;20182;-64
2023/04/28 01:19:30;;;;;;;7.70;6.87;;;11.40;1.00;;;;;;5031095;28;20199;-64
2023/04/28 01:21:56;;;;;;;7.53;7.03;;;11.40;99.90;;;;;;5031217;28;20237;-64
2023/04/28 01:24:22;;;;;;;6.80;6.10;;;11.40;1.00;;;;;;5031114;28;20278;-64
2023/04/28 01:26:47;;;;;;;7.53;6.93;;;11.30;99.90;;;;;;5031223;28;20182;-64
2023/04/28 01:29:13;;;;;;;9.40;7.10;;;11.30;56.40;;;;;;5030650;28;20225;-64
2023/04/28 01:31:39;;;;;;;11.80;6.90;;;11.30;99.90;;;;;;5031232;28;20180;-64
2023/04/28 01:34:04;;;;;;;7.83;7.30;;;11.20;99.90;;;;;;5031140;28;20215;-64
2023/04/28 01:36:30;;;;;;;7.87;7.10;;;11.20;99.90;;;;;;5031160;28;20650;-64
2023/04/28 01:38:56;;;;;;;7.43;6.83;;;11.10;99.90;;;;;;5029356;28;20203;-64
2023/04/28 01:41:21;;;;;;;8.27;7.67;;;11.00;99.90;;;;;;5031026;28;20249;-64
2023/04/28 01:43:47;;;;;;;7.47;6.87;;;10.90;99.90;;;;;;5030610;28;20214;-64
2023/04/28 01:46:13;;;;;;;7.37;6.67;;;10.90;1.00;;;;;;5030997;28;20171;-64
2023/04/28 01:48:38;;;;;;;8.03;7.33;;;10.90;1.00;;;;;;5030446;28;20198;-64
2023/04/28 01:51:04;;;;;;;8.20;7.70;;;10.90;1.00;;;;;;5031919;28;20171;-65
2023/04/28 01:53:30;;;;;;;8.27;7.47;;;10.90;1.00;;;;;;5034486;28;20887;-64
2023/04/28 01:55:57;;;;;;;7.97;7.27;;;10.90;1.00;;;;;;5034664;28;20183;-65
2023/04/28 01:58:23;;;;;;;14.33;8.17;;;11.00;1.00;;;;;;5034246;28;20203;-64
2023/04/28 02:00:48;;;;;;;8.17;7.57;;;11.00;1.00;;;;;;5033912;28;20167;-64
2023/04/28 02:03:14;;;;;;;8.10;7.40;;;11.10;1.00;;;;;;5034156;28;20221;-65
2023/04/28 02:05:40;;;;;;;8.13;7.53;;;11.10;1.00;;;;;;5034356;28;20168;-65
2023/04/28 02:08:05;;;;;;;9.43;7.33;;;11.10;1.00;;;;;;5034193;28;20584;-65
2023/04/28 02:10:31;;;;;;;8.50;7.37;;;11.10;1.00;;;;;;5033706;28;20248;-65
2023/04/28 02:12:57;;;;;;;12.87;7.50;;;11.00;1.00;;;;;;5034253;28;20171;-64
2023/04/28 02:15:22;;;;;;;8.23;7.07;;;11.00;6.30;;;;;;5034096;28;20180;-65
2023/04/28 02:17:48;;;;;;;7.33;6.73;;;10.90;5.50;;;;;;5034063;28;20280;-64
2023/04/28 02:20:14;;;;;;;7.97;7.27;;;10.90;9.00;;;;;;5033622;28;20225;-64
2023/04/28 02:22:40;;;;;;;7.10;6.60;;;10.90;46.60;;;;;;5033892;28;20195;-65
2023/04/28 02:25:06;;;;;;;8.10;7.37;;;10.80;99.90;;;;;;5033534;28;20206;-65
2023/04/28 02:27:35;;;;;;;10.07;7.90;;;10.80;99.90;;;;;;5033224;28;20194;-65
2023/04/28 02:30:01;;;;;;;9.10;8.20;;;10.70;99.90;;;;;;5033653;28;20176;-65
2023/04/28 02:32:27;;;;;;;8.23;7.53;;;10.70;99.90;;;;;;5033507;28;20179;-65
2023/04/28 02:34:55;;;;;;;8.47;7.33;;;10.60;99.90;;;;;;5033708;28;20202;-65
2023/04/28 02:37:21;;;;;;;9.33;8.47;;;10.60;99.90;;;;;;5033733;28;20659;-65
2023/04/28 02:39:47;;;;;;;8.63;8.00;;;10.50;99.90;;;;;;5032302;28;20266;-65
2023/04/28 02:42:13;;;;;;;7.53;7.03;;;10.50;99.90;;;;;;5033510;28;20254;-64
2023/04/28 02:44:38;;;;;;;8.03;7.33;;;10.40;99.90;;;;;;5033631;28;20657;-65
2023/04/28 02:47:04;;;;;;;7.80;7.20;;;10.40;99.90;;;;;;5033417;28;20180;-65
2023/04/28 02:49:30;;;;;;;10.17;9.17;;;10.40;99.90;;;;;;5033160;28;20318;-65
2023/04/28 02:51:56;;;;;;;7.93;7.33;;;10.40;99.90;;;;;;5033351;28;20184;-65
2023/04/28 02:54:26;;;;;;;8.33;7.70;;;10.40;99.90;;;;;;5033510;28;20178;-65
2023/04/28 02:56:53;;;;;;;9.17;8.30;;;10.40;99.90;;;;;;5013428;28;20181;-64
2023/04/28 02:59:20;;;;;;;7.97;7.20;;;10.40;99.90;;;;;;5019466;28;20209;-64
2023/04/28 03:01:46;;;;;;;8.03;7.43;;;10.40;99.90;;;;;;5031484;28;20179;-65
2023/04/28 03:04:11;;;;;;;7.93;7.33;;;10.40;99.90;;;;;;5032250;28;20195;-65
2023/04/28 03:06:37;;;;;;;7.67;7.07;;;10.40;99.90;;;;;;5033233;28;20168;-64
2023/04/28 03:09:02;;;;;;;8.70;8.03;;;10.40;99.90;;;;;;5032969;28;20199;-64
2023/04/28 03:11:28;;;;;;;11.30;8.63;;;10.40;99.90;;;;;;5032867;28;20191;-64
2023/04/28 03:13:54;;;;;;;8.27;7.67;;;10.40;99.90;;;;;;5032912;28;20707;-63
2023/04/28 03:16:19;;;;;;;10.07;9.07;;;10.40;99.90;;;;;;5032613;28;20176;-64
2023/04/28 03:18:45;;;;;;;9.40;8.63;;;10.40;99.90;;;;;;5032802;28;20266;-66
2023/04/28 03:21:11;;;;;;;10.23;9.40;;;10.40;99.90;;;;;;5032594;28;20183;-65
2023/04/28 03:23:36;;;;;;;8.50;7.80;;;10.40;99.90;;;;;;5033029;28;20203;-66
2023/04/28 03:26:02;;;;;;;11.97;9.33;;;10.30;99.90;;;;;;5032803;28;20701;-65
2023/04/28 03:28:29;;;;;;;10.43;8.90;;;10.30;99.90;;;;;;5032335;28;20227;-65
2023/04/28 03:30:54;;;;;;;11.97;8.17;;;10.30;99.90;;;;;;5033020;28;20180;-64
2023/04/28 03:33:20;;;;;;;8.33;7.73;;;10.30;99.90;;;;;;5032620;28;20244;-65
2023/04/28 03:35:46;;;;;;;10.23;8.40;;;10.20;99.90;;;;;;5032729;28;20635;-65
2023/04/28 03:38:11;;;;;;;8.67;7.97;;;10.20;99.90;;;;;;5032252;28;20198;-65
2023/04/28 03:40:37;;;;;;;8.77;8.13;;;10.10;99.90;;;;;;5032159;28;20183;-64
2023/04/28 03:43:02;;;;;;;8.30;7.60;;;10.10;99.90;;;;;;5032358;28;20557;-64
2023/04/28 03:45:28;;;;;;;9.90;8.07;;;10.10;99.90;;;;;;5032226;28;20204;-64
2023/04/28 03:47:54;;;;;;;7.60;7.10;;;10.10;99.90;;;;;;5032216;28;20673;-64
2023/04/28 03:50:19;;;;;;;8.70;8.00;;;10.00;99.90;;;;;;5031825;28;20179;-65
2023/04/28 03:52:45;;;;;;;8.47;7.77;;;10.00;99.90;;;;;;5032072;28;20594;-64
2023/04/28 03:55:11;;;;;;;8.90;8.13;;;9.90;99.90;;;;;;5032245;28;20665;-66
2023/04/28 03:57:36;;;;;;;10.47;8.00;;;9.90;99.90;;;;;;5032122;28;20180;-66
2023/04/28 04:00:02;;;;;;;11.30;8.73;;;9.90;99.90;;;;;;5031851;28;20190;-65
2023/04/28 04:02:28;;;;;;;10.10;8.20;;;9.80;99.90;;;;;;5032246;28;20176;-65
2023/04/28 04:04:54;;;;;;;8.67;7.77;;;9.80;99.90;;;;;;5031761;28;20213;-65
2023/04/28 04:07:21;;;;;;;9.30;8.40;;;9.80;99.90;;;;;;5032179;28;20178;-66
2023/04/28 04:09:47;;;;;;;8.67;7.87;;;9.80;99.90;;;;;;5031246;28;20289;-65
2023/04/28 04:12:13;;;;;;;10.13;9.33;;;9.80;99.90;;;;;;5032045;28;20167;-65
2023/04/28 04:14:39;;;;;;;9.67;8.70;;;9.80;99.90;;;;;;5031391;28;20201;-65
2023/04/28 04:17:05;;;;;;;10.07;8.77;;;9.80;99.90;;;;;;5031946;28;20210;-66
2023/04/28 04:19:30;;;;;;;8.07;7.43;;;9.80;99.90;;;;;;5031148;28;20283;-65
2023/04/28 04:21:56;;;;;;;9.20;8.30;;;9.80;99.90;;;;;;5031794;28;20187;-64
2023/04/28 04:24:21;;;;;;;8.90;8.03;;;9.80;99.90;;;;;;5031438;28;20213;-65
2023/04/28 04:26:47;;;;;;;8.70;7.93;;;9.90;99.90;;;;;;5031523;28;20246;-65
2023/04/28 04:29:13;;;;;;;8.63;7.93;;;9.90;99.90;;;;;;5031201;28;20214;-65
2023/04/28 04:31:38;;;;;;;9.20;8.40;;;9.90;99.90;;;;;;5031281;28;20266;-65
2023/04/28 04:34:04;;;;;;;10.03;8.57;;;9.90;99.90;;;;;;5031813;28;20183;-65
2023/04/28 04:36:31;;;;;;;8.87;7.97;;;9.90;99.90;;;;;;5031548;28;20189;-65
2023/04/28 04:38:57;;;;;;;9.93;9.03;;;9.90;99.90;;;;;;5031389;28;20210;-65
2023/04/28 04:41:24;;;;;;;10.20;9.30;;;10.00;99.90;;;;;;5031119;28;20187;-64
2023/04/28 04:43:50;;;;;;;11.30;8.83;;;10.00;99.90;;;;;;5031394;28;20207;-65
2023/04/28 04:46:15;;;;;;;8.63;7.83;;;10.00;99.90;;;;;;5031284;28;20244;-65
2023/04/28 04:48:42;;;;;;;11.77;8.97;;;10.10;99.90;;;;;;5031314;28;20191;-67
2023/04/28 04:51:07;;;;;;;12.30;8.80;;;10.10;99.90;;;;;;5029451;28;20289;-65
2023/04/28 04:53:33;;;;;;;9.50;8.70;;;10.00;99.90;;;;;;5031408;28;20600;-65
2023/04/28 04:55:59;;;;;;;9.60;8.23;;;10.00;99.90;;;;;;5031158;28;20641;-65
2023/04/28 04:58:25;;;;;;;13.37;8.33;;;9.90;99.90;;;;;;5031440;28;20199;-66
2023/04/28 05:00:50;;;;;;;9.90;8.90;;;10.00;99.90;;;;;;5029603;28;20333;-64
2023/04/28 05:03:16;;;;;;;9.20;8.40;;;10.00;99.90;;;;;;5030106;28;20207;-65
2023/04/28 05:05:43;;;;;;;10.73;8.63;;;10.00;99.90;;;;;;5030808;28;20178;-65
2023/04/28 05:08:10;;;;;;;9.73;8.93;;;10.10;99.90;;;;;;5030960;28;20658;-65
2023/04/28 05:10:36;;;;;;;9.73;8.73;;;10.20;99.90;;;;;;5030619;28;20254;-64
2023/04/28 05:13:01;;;;;;;8.60;7.90;;;10.20;99.90;;;;;;5030976;28;20250;-65
2023/04/28 05:15:28;;;;;;;10.30;9.27;;;10.20;99.90;;;;;;5030856;28;20175;-65
2023/04/28 05:17:54;;;;;;;9.50;8.60;;;10.20;99.90;;;;;;5030957;28;20203;-65
2023/04/28 05:20:19;;;;;;;9.40;8.50;;;10.20;99.90;;;;;;5030630;28;20258;-65
2023/04/28 05:22:45;;;;;;;8.43;7.57;;;10.20;99.90;;;;;;5030953;28;20182;-65
2023/04/28 05:25:10;;;;;;;10.83;8.80;;;10.30;99.90;;;;;;5030878;28;20294;-65
2023/04/28 05:27:38;;;;;;;11.67;8.83;;;10.30;99.90;;;;;;5034484;28;20191;-65
2023/04/28 05:30:05;;;;;;;15.20;8.67;;;10.40;99.90;;;;;;5034787;28;20617;-65
2023/04/28 05:32:30;;;;;;;9.23;8.07;;;10.40;99.90;;;;;;5034847;28;20203;-65
2023/04/28 05:34:56;;;;;;;11.23;8.03;;;10.50;99.90;;;;;;5034982;28;20217;-65
2023/04/28 05:37:22;;;;;;;9.50;8.47;;;10.50;99.90;;;;;;5034701;28;20187;-65
2023/04/28 05:39:47;;;;;;;9.43;8.57;;;10.50;99.90;;;;;;5034351;28;20199;-65
2023/04/28 05:42:13;;;;;;;10.37;7.60;;;10.60;99.90;;;;;;5034978;28;20183;-65
2023/04/28 05:44:38;;;;;;;8.43;7.67;;;10.60;99.90;;;;;;5034541;28;20207;-65
2023/04/28 05:47:04;;;;;;;8.53;7.73;;;10.70;99.90;;;;;;5034414;28;20187;-66
2023/04/28 05:49:30;;;;;;;10.13;8.10;;;10.70;99.90;;;;;;5034249;28;20540;-64
2023/04/28 05:51:55;;;;;;;8.93;8.03;;;10.70;99.90;;;;;;5034003;28;20183;-65
2023/04/28 05:54:21;;;;;;;8.30;7.53;;;10.80;99.90;;;;;;5034174;28;20270;-64
2023/04/28 05:56:46;;;;;;;9.47;8.37;;;10.90;99.90;;;;;;5034515;28;20184;-65
2023/04/28 05:59:12;;;;;;;9.70;8.73;;;10.90;99.90;;;;;;5033947;28;20490;-66
2023/04/28 06:01:37;;;;;;;9.97;8.03;;;11.00;99.90;;;;;;5034268;28;20551;-64
2023/04/28 06:04:03;;;;;;;12.63;7.30;;;11.10;99.90;;;;;;5034079;28;20211;-64
2023/04/28 06:06:31;;;;;;;7.57;6.87;;;11.20;99.90;;;;;;5032983;28;20179;-66
2023/04/28 06:08:56;;;;;;;10.20;9.17;;;11.20;99.90;;;;;;5033545;28;20195;-65
2023/04/28 06:11:22;;;;;;;11.87;7.93;;;11.30;99.90;;;;;;5033727;28;20179;-65
2023/04/28 06:13:49;;;;;;;9.93;7.40;;;11.30;99.90;;;;;;5033827;28;20188;-65
2023/04/28 06:16:16;;;;;;;9.13;8.23;;;11.30;99.90;;;;;;5034127;28;20521;-64
2023/04/28 06:18:42;;;;;;;8.97;8.17;;;11.30;99.90;;;;;;5033628;28;20207;-65
2023/04/28 06:21:07;;;;;;;8.60;7.87;;;11.30;99.90;;;;;;5033896;28;20171;-66
2023/04/28 06:23:33;;;;;;;8.50;7.77;;;11.30;99.90;;;;;;5033658;28;20672;-65
2023/04/28 06:25:59;;;;;;;10.73;8.37;;;11.20;99.90;;;;;;5033517;28;20226;-66
2023/04/28 06:28:25;;;;;;;8.40;7.80;;;11.30;99.90;;;;;;5035434;28;20223;-64
2023/04/28 06:30:50;;;;;;;8.60;7.80;;;11.30;99.90;;;;;;5032707;28;20186;-64
2023/04/28 06:33:16;;;;;;;9.07;8.17;;;11.40;99.90;;;;;;5033394;28;20187;-65
2023/04/28 06:35:41;;;;;;;9.03;8.23;;;11.40;99.90;;;;;;5033540;28;20544;-66
2023/04/28 06:38:07;;;;;;;10.77;7.90;;;11.50;99.90;;;;;;5033449;28;20278;-65
2023/04/28 06:40:33;;;;;;;7.87;7.17;;;11.50;99.90;;;;;;5032984;28;20532;-65
2023/04/28 06:42:58;;;;;;;8.30;7.57;;;11.60;99.90;;;;;;5033436;28;20175;-66
2023/04/28 06:45:24;;;;;;;8.40;7.63;;;11.70;99.90;;;;;;5033339;28;20637;-66
2023/04/28 06:47:50;;;;;;;8.37;7.57;;;11.80;99.90;;;;;;5033056;28;20669;-66
2023/04/28 06:50:16;;;;;;;8.53;7.73;;;12.00;99.90;;;;;;5031705;28;20520;-65
2023/04/28 06:52:41;;;;;;;7.93;7.30;;;12.10;99.90;;;;;;5033140;28;20258;-65
2023/04/28 06:55:08;;;;;;;8.07;7.37;;;12.10;99.90;;;;;;5033030;28;20582;-65
2023/04/28 06:57:34;;;;;;;6.93;6.43;;;12.20;99.90;;;;;;5033240;28;20172;-66
2023/04/28 07:00:00;;;;;;;9.03;8.10;;;12.20;99.90;;;;;;5032036;28;20175;-65
2023/04/28 07:02:26;;;;;;;7.17;6.47;;;12.10;99.90;;;;;;5032680;28;20675;-65
2023/04/28 07:04:51;;;;;;;7.83;7.03;;;12.10;99.90;;;;;;5032106;28;20245;-64
2023/04/28 07:07:17;;;;;;;9.53;7.13;;;12.00;99.90;;;;;;5032977;28;20191;-65
2023/04/28 07:09:43;;;;;;;8.17;7.13;;;12.00;99.90;;;;;;5032493;28;20214;-65
2023/04/28 07:12:08;;;;;;;8.60;7.90;;;12.00;99.90;;;;;;5032573;28;20718;-65
2023/04/28 07:14:34;;;;;;;8.83;8.10;;;12.10;99.90;;;;;;5033039;28;20208;-64
2023/04/28 07:16:59;;;;;;;7.73;7.10;;;12.10;99.90;;;;;;5031481;28;20645;-64
2023/04/28 07:19:25;;;;;;;7.70;6.90;;;12.20;99.90;;;;;;5032602;28;20265;-65
2023/04/28 07:21:51;;;;;;;8.03;7.43;;;12.10;99.90;;;;;;5032508;28;20713;-64
2023/04/28 07:24:16;;;;;;;8.47;7.53;;;12.10;99.90;;;;;;5032937;28;20407;-64
2023/04/28 07:26:42;;;;;;;8.97;8.27;;;12.10;99.90;;;;;;5031680;28;20210;-64
2023/04/28 07:29:07;;;;;;;7.70;7.10;;;12.20;99.90;;;;;;5032306;28;20577;-65
2023/04/28 07:31:33;;;;;;;8.50;7.80;;;12.10;99.90;;;;;;5032212;28;20206;-65
2023/04/28 07:33:59;;;;;;;10.93;8.00;;;12.20;99.90;;;;;;5032544;28;20179;-65
2023/04/28 07:36:25;;;;;;;8.37;7.50;;;12.40;99.90;;;;;;5032670;28;20545;-64
2023/04/28 07:38:51;;;;;;;7.83;7.00;;;12.50;99.90;;;;;;5032199;28;20228;-65
2023/04/28 07:41:17;;;;;;;8.03;6.70;;;12.60;99.90;;;;;;5032134;28;20190;-64
2023/04/28 07:43:43;;;;;;;7.67;7.07;;;12.70;99.90;;;;;;5029663;28;20286;-64
2023/04/28 07:46:09;;;;;;;7.87;7.37;;;12.80;99.90;;;;;;5032477;28;20203;-65
2023/04/28 07:48:35;;;;;;;11.83;8.60;;;13.00;99.90;;;;;;5031404;28;20270;-65
2023/04/28 07:51:01;;;;;;;11.73;10.47;;;13.10;99.90;;;;;;5031969;28;20702;-65
2023/04/28 07:53:27;;;;;;;9.67;7.73;;;13.20;99.90;;;;;;5032061;28;20262;-65
2023/04/28 07:55:53;;;;;;;9.33;8.63;;;13.50;99.90;;;;;;5032238;28;20537;-64
2023/04/28 07:58:19;;;;;;;7.47;6.77;;;13.80;99.90;;;;;;5031887;28;20241;-65
2023/04/28 08:00:45;;;;;;;7.93;7.23;;;14.10;99.90;;;;;;5032008;28;20649;-64
2023/04/28 08:03:10;;;;;;;10.67;9.67;;;14.30;99.90;;;;;;5031869;28;20207;-64
2023/04/28 08:05:37;;;;;;;7.23;6.60;;;14.80;99.90;;;;;;5031672;28;20695;-64
2023/04/28 08:08:03;;;;;;;12.37;9.27;;;15.40;99.90;;;;;;5032008;28;20188;-65
2023/04/28 08:10:29;;;;;;;7.60;7.00;;;15.90;99.90;;;;;;5031239;28;20187;-64
2023/04/28 08:12:54;;;;;;;7.67;6.97;;;16.30;99.90;;;;;;5031723;28;20751;-64
2023/04/28 08:15:20;;;;;;;7.63;6.93;;;16.60;99.90;;;;;;5029551;28;20274;-65
2023/04/28 08:17:46;;;;;;;9.23;8.23;;;16.90;99.90;;;;;;5031538;28;20641;-65
2023/04/28 08:20:14;;;;;;;8.07;7.27;;;16.90;99.90;;;;;;5030104;28;20171;-64
2023/04/28 08:22:40;;;;;;;8.00;7.23;;;16.90;99.90;;;;;;5031660;28;20175;-65
2023/04/28 08:25:06;;;;;;;8.83;8.03;;;16.90;99.90;;;;;;5031169;28;20214;-64
2023/04/28 08:27:33;;;;;;;10.13;7.53;;;16.90;99.90;;;;;;5031340;28;20192;-63
2023/04/28 08:29:58;;;;;;;9.47;8.67;;;16.90;99.90;;;;;;5031440;28;20175;-65
2023/04/28 08:32:24;;;;;;;9.20;8.27;;;16.90;99.90;;;;;;5031415;28;20183;-65
2023/04/28 08:34:50;;;;;;;9.13;8.30;;;16.90;99.90;;;;;;5029174;28;20715;-65
2023/04/28 08:37:15;;;;;;;8.30;7.63;;;17.00;99.90;;;;;;5031022;28;20176;-65
2023/04/28 08:39:41;;;;;;;7.57;6.80;;;16.90;99.90;;;;;;5031242;28;20546;-63
2023/04/28 08:42:07;;;;;;;9.40;7.90;;;16.80;99.90;;;;;;5031180;28;20664;-64
2023/04/28 08:44:39;;;;;;;9.37;7.57;;;16.60;99.90;;;;;;5031366;28;20203;-63
2023/04/28 08:47:13;;;;;;;10.00;8.90;;;16.30;99.90;;;;;;5031097;28;20175;-64
2023/04/28 08:49:39;;;;;;;7.40;6.70;;;16.00;99.90;;;;;;5030916;28;20215;-64
2023/04/28 08:52:15;;;;;;;10.97;8.60;;;15.70;99.90;;;;;;5031175;28;20571;-63
2023/04/28 08:54:41;;;;;;;9.83;8.77;;;15.60;99.90;;;;;;5031333;28;20238;-64
2023/04/28 08:57:10;;;;;;;11.60;7.73;;;15.40;99.90;;;;;;5030931;28;20183;-63
2023/04/28 08:59:40;;;;;;;7.73;7.07;;;15.30;99.90;;;;;;5019012;28;20882;-64
2023/04/28 09:02:09;;;;;;;8.53;7.90;;;15.10;99.90;;;;;;5030849;28;20533;-63
2023/04/28 09:04:35;;;;;;;11.00;10.00;;;14.90;99.90;;;;;;5031046;28;20195;-67
2023/04/28 09:07:01;;;;;;;11.17;9.37;;;14.70;99.90;;;;;;5031229;28;20184;-64
2023/04/28 09:09:29;;;;;;;12.53;10.97;;;14.60;99.90;;;;;;5030964;28;20688;-64
2023/04/28 09:12:02;;;;;;;11.27;9.60;;;14.40;99.90;;;;;;5030831;28;20198;-67
2023/04/28 09:14:30;;;;;;;12.80;11.60;;;14.30;99.90;;;;;;5031399;28;20179;-65
2023/04/28 09:16:56;;;;;;;11.20;10.10;;;14.20;99.90;;;;;;5030888;28;20225;-65
2023/04/28 09:19:22;;;;;;;10.57;9.57;;;14.20;99.90;;;;;;5030654;28;20195;-65
2023/04/28 09:21:53;;;;;;;11.73;10.70;;;14.20;99.90;;;;;;5031167;28;20297;-64
2023/04/28 09:24:45;;;;;;;9.87;8.87;;;14.20;99.90;;;;;;5030756;28;20207;-64
2023/04/28 09:27:11;;;;;;;11.87;10.37;;;14.10;99.90;;;;;;5028892;28;20195;-65
2023/04/28 09:29:38;;;;;;;12.43;10.73;;;14.20;99.90;;;;;;5030954;28;20250;-64
2023/04/28 09:32:16;;;;;;;11.13;10.03;;;14.30;99.90;;;;;;5030835;28;20300;-65
2023/04/28 09:34:47;;;;;;;14.13;10.07;;;14.30;99.90;;;;;;5030788;28;20172;-64
2023/04/28 09:37:19;;;;;;;10.23;8.83;;;14.30;99.90;;;;;;5030729;28;20179;-65
2023/04/28 09:39:48;;;;;;;11.13;10.07;;;14.20;99.90;;;;;;5030368;28;20425;-65
2023/04/28 09:42:35;;;;;;;12.40;10.20;;;14.20;99.90;;;;;;5031136;28;20163;-65
2023/04/28 09:45:12;;;;;;;13.53;11.00;;;14.20;99.90;;;;;;5029391;28;20207;-65
2023/04/28 09:47:45;;;;;;;11.30;10.40;;;14.10;99.90;;;;;;5010865;28;20179;-64
2023/04/28 09:50:15;;;;;;;11.23;10.30;;;14.10;99.90;;;;;;5013963;28;20175;-64
2023/04/28 09:52:56;;;;;;;14.40;11.30;;;14.20;99.90;;;;;;5030679;28;20200;-64
2023/04/28 09:55:22;;;;;;;15.97;11.07;;;14.30;99.90;;;;;;5030544;28;20255;-65
2023/04/28 09:57:52;;;;;;;11.63;10.50;;;14.20;99.90;;;;;;5030605;28;20773;-65
2023/04/28 10:00:19;;;;;;;14.67;12.17;;;14.20;99.90;;;;;;5030202;28;20167;-65
2023/04/28 10:02:44;;;;;;;16.73;11.93;;;14.20;99.90;;;;;;5030459;28;20234;-65
2023/04/28 10:05:11;;;;;;;12.87;10.40;;;14.30;99.90;;;;;;5030275;28;20203;-64
2023/04/28 10:07:38;;;;;;;12.10;10.07;;;14.30;99.90;;;;;;5029897;28;20167;-65
2023/04/28 10:10:04;;;;;;;11.73;10.60;;;14.30;99.90;;;;;;5030206;28;20207;-65
2023/04/28 10:12:31;;;;;;;13.53;12.23;;;14.40;99.90;;;;;;5031845;28;20171;-65
2023/04/28 10:14:57;;;;;;;12.17;10.80;;;14.50;99.90;;;;;;5034210;28;20510;-65
2023/04/28 10:17:28;;;;;;;11.70;10.70;;;14.50;99.90;;;;;;5033742;28;20187;-64
2023/04/28 10:19:54;;;;;;;12.30;11.10;;;14.40;99.90;;;;;;5033392;28;20688;-65
2023/04/28 10:22:38;;;;;;;12.97;11.73;;;14.40;99.90;;;;;;5034149;28;20548;-65
2023/04/28 10:25:31;;;;;;;13.10;11.27;;;14.40;99.90;;;;;;5033652;28;20210;-65
2023/04/28 10:27:58;;;;;;;12.07;9.70;;;14.40;99.90;;;;;;5033691;28;20582;-64
2023/04/28 10:30:30;;;;;;;11.03;9.63;;;14.50;99.90;;;;;;5033573;28;20253;-64
2023/04/28 10:33:22;;;;;;;10.57;9.47;;;14.60;99.90;;;;;;5033620;28;20172;-65
2023/04/28 10:35:47;;;;;;;13.27;10.90;;;14.60;99.90;;;;;;5032782;28;20191;-64
2023/04/28 10:38:18;;;;;;;10.80;9.57;;;14.60;99.90;;;;;;5033767;28;20529;-65
2023/04/28 10:40:53;;;;;;;11.30;10.13;;;14.70;99.90;;;;;;5033031;28;20230;-65
2023/04/28 10:43:29;;;;;;;14.50;10.90;;;14.90;99.90;;;;;;5033447;28;20818;-65
2023/04/28 10:46:00;;;;;;;11.20;10.10;;;15.10;99.90;;;;;;5032987;28;20595;-65
2023/04/28 10:48:29;;;;;;;11.43;10.30;;;15.40;99.90;;;;;;5032837;28;20231;-64
2023/04/28 10:51:11;;;;;;;14.73;10.10;;;15.80;99.90;;;;;;5032419;28;20792;-64
2023/04/28 10:53:43;;;;;;;9.47;7.63;;;16.20;99.90;;;;;;5032638;28;20191;-64
2023/04/28 10:56:29;;;;;;;8.13;7.33;;;16.50;99.90;;;;;;5032469;28;20262;-64
2023/04/28 10:58:57;;;;;;;7.47;6.97;;;16.70;99.90;;;;;;5032244;28;20712;-64
2023/04/28 11:01:28;;;;;;;9.17;7.20;;;17.00;99.90;;;;;;5031925;28;20179;-64
2023/04/28 11:03:59;;;;;;;7.43;6.73;;;17.40;99.90;;;;;;5032608;28;20290;-65
2023/04/28 11:06:34;;;;;;;8.13;7.43;;;17.90;99.90;;;;;;5032351;28;20215;-65
2023/04/28 11:09:01;;;;;;;6.47;5.97;;;18.50;99.90;;;;;;5032554;28;20191;-65
2023/04/28 11:11:31;;;;;;;7.22;6.53;;;19.10;99.90;;;;;;5030545;28;20175;-64
2023/04/28 11:14:18;;;;;;;11.77;10.98;;;19.60;99.90;;;;;;5032533;28;20163;-64
2023/04/28 11:16:52;;;;;;;12.00;11.13;;;20.20;99.90;;;;;;5032234;28;20237;-64
2023/04/28 11:19:25;;;;;;;15.68;14.38;;;20.40;99.90;;;;;;5030663;28;20202;-64
2023/04/28 11:21:54;;;;;;;7.72;7.13;;;20.40;99.90;;;;;;5031850;28;20190;-65
2023/04/28 11:24:21;;;;;;;8.65;7.80;;;20.00;99.90;;;;;;5031343;28;20290;-65
2023/04/28 11:26:47;;;;;;;6.60;6.05;;;19.80;99.90;;;;;;5031539;28;20676;-64
2023/04/28 11:29:16;;;;;;;6.30;5.50;;;19.70;99.90;;;;;;5031709;28;20689;-64
2023/04/28 11:31:51;;;;;;;6.85;6.35;;;20.00;99.90;;;;;;5031648;28;20194;-65
2023/04/28 11:34:21;;;;;;;5.50;5.10;;;20.10;99.90;;;;;;5032052;28;20687;-64
2023/04/28 11:36:47;;;;;;;6.40;6.00;;;20.30;99.90;;;;;;5031648;28;20211;-64
2023/04/28 11:39:13;;;;;;;5.97;5.47;;;20.50;99.90;;;;;;5031355;28;20238;-64
2023/04/28 11:41:45;;;;;;;8.60;8.10;;;20.60;99.90;;;;;;5031463;28;20270;-65
2023/04/28 11:44:21;;;;;;;5.80;5.38;;;20.90;99.90;;;;;;5031896;28;20203;-64
2023/04/28 11:46:50;;;;;;;4.95;4.55;;;21.50;99.90;;;;;;5031056;28;20559;-64
2023/04/28 11:49:17;;;;;;;4.43;4.13;;;22.00;99.90;;;;;;5031773;28;20223;-65
2023/04/28 11:51:48;;;;;;;5.20;4.80;;;22.00;99.90;;;;;;5031973;28;20184;-65
2023/04/28 11:54:25;;;;;;;4.63;4.32;;;22.00;99.90;;;;;;5030901;28;20436;-65
2023/04/28 11:56:52;;;;;;;5.90;5.40;;;22.30;99.90;;;;;;5032018;28;20258;-65
2023/04/28 11:59:23;;;;;;;4.95;4.60;;;22.30;99.90;;;;;;5031727;28;20191;-64
2023/04/28 12:01:58;;;;;;;6.00;5.60;;;22.30;99.90;;;;;;5031637;28;20187;-64
2023/04/28 12:04:35;;;;;;;6.70;6.30;;;22.10;99.90;;;;;;5032054;28;20270;-64
2023/04/28 12:07:04;;;;;;;7.75;7.13;;;21.70;99.90;;;;;;5031770;28;20183;-64
2023/04/28 12:09:30;;;;;;;6.38;5.97;;;21.70;99.90;;;;;;5031319;28;20588;-64
2023/04/28 12:12:10;;;;;;;5.65;5.22;;;21.70;99.90;;;;;;5031805;28;20179;-64
2023/04/28 12:15:00;;;;;;;5.90;5.50;;;21.70;99.90;;;;;;5031957;28;20198;-64
2023/04/28 12:17:33;;;;;;;6.15;5.65;;;21.90;99.90;;;;;;5032059;28;20259;-64
2023/04/28 12:20:05;;;;;;;5.95;5.55;;;22.00;99.90;;;;;;5030000;28;20711;-64
2023/04/28 12:22:49;;;;;;;5.50;5.03;;;21.90;99.90;;;;;;5031807;28;20221;-64
2023/04/28 12:25:16;;;;;;;4.80;4.40;;;21.70;99.90;;;;;;5031638;28;20553;-64
2023/04/28 12:28:01;;;;;;;18.38;15.80;;;21.70;99.90;;;;;;5031612;28;20261;-65
2023/04/28 12:30:28;;;;;;;16.45;12.05;;;21.60;99.90;;;;;;5031524;28;20186;-64
2023/04/28 12:32:54;;;;;;;6.35;5.75;;;21.40;99.90;;;;;;5030081;28;20254;-64
2023/04/28 12:35:22;;;;;;;7.32;6.28;;;21.40;99.90;;;;;;5031226;28;20218;-65
2023/04/28 12:37:47;;;;;;;5.85;5.50;;;21.50;99.90;;;;;;5031412;28;20327;-64
2023/04/28 12:40:13;;;;;;;4.25;3.95;;;21.80;99.90;;;;;;5031359;28;20266;-65
2023/04/28 12:42:39;;;;;;;5.45;5.05;;;22.00;99.90;;;;;;5031336;28;20179;-64
2023/04/28 12:45:06;;;;;;;5.35;4.95;;;22.00;99.90;;;;;;5031101;28;20199;-64